sensor_id;sensor_type;location;lat;lon;timestamp;P1;durP1;ratioP1;P2;durP2;ratioP2
63112;SDS011;49206;48.020;21.378;2022-09-12T00:08:54;2.70;;;2.50;;
63112;SDS011;49206;48.020;21.378;2022-09-12T00:18:58;2.72;;;2.53;;
63112;SDS011;49206;48.020;21.378;2022-09-12T00:29:01;2.90;;;2.70;;
63112;SDS011;49206;48.020;21.378;2022-09-12T00:39:04;6.40;;;3.00;;
63112;SDS011;49206;48.020;21.378;2022-09-12T00:49:14;4.07;;;3.08;;
63112;SDS011;49206;48.020;21.378;2022-09-12T00:59:58;3.58;;;3.08;;
63112;SDS011;49206;48.020;21.378;2022-09-12T01:10:14;3.60;;;3.00;;
63112;SDS011;49206;48.020;21.378;2022-09-12T01:30:49;3.28;;;2.97;;
63112;SDS011;49206;48.020;21.378;2022-09-12T01:41:08;3.47;;;3.17;;
63112;SDS011;49206;48.020;21.378;2022-09-12T01:51:27;2.83;;;2.63;;
63112;SDS011;49206;48.020;21.378;2022-09-12T02:01:35;5.53;;;3.72;;
63112;SDS011;49206;48.020;21.378;2022-09-12T02:11:43;4.88;;;3.25;;
63112;SDS011;49206;48.020;21.378;2022-09-12T02:21:54;4.70;;;3.90;;
63112;SDS011;49206;48.020;21.378;2022-09-12T02:32:02;5.78;;;4.10;;
63112;SDS011;49206;48.020;21.378;2022-09-12T02:42:07;4.90;;;3.97;;
63112;SDS011;49206;48.020;21.378;2022-09-12T02:52:09;6.80;;;4.10;;
63112;SDS011;49206;48.020;21.378;2022-09-12T03:02:31;7.28;;;4.07;;
63112;SDS011;49206;48.020;21.378;2022-09-12T03:22:48;5.68;;;3.65;;
63112;SDS011;49206;48.020;21.378;2022-09-12T03:32:55;6.43;;;3.88;;
63112;SDS011;49206;48.020;21.378;2022-09-12T03:42:58;6.35;;;4.65;;
63112;SDS011;49206;48.020;21.378;2022-09-12T03:53:01;6.22;;;4.30;;
63112;SDS011;49206;48.020;21.378;2022-09-12T04:03:04;6.72;;;4.40;;
63112;SDS011;49206;48.020;21.378;2022-09-12T04:13:07;6.40;;;4.53;;
63112;SDS011;49206;48.020;21.378;2022-09-12T04:23:10;5.80;;;4.43;;
63112;SDS011;49206;48.020;21.378;2022-09-12T04:33:13;6.70;;;4.47;;
63112;SDS011;49206;48.020;21.378;2022-09-12T04:43:20;11.38;;;6.30;;
63112;SDS011;49206;48.020;21.378;2022-09-12T04:53:26;10.20;;;5.68;;
63112;SDS011;49206;48.020;21.378;2022-09-12T05:03:30;7.65;;;4.95;;
63112;SDS011;49206;48.020;21.378;2022-09-12T05:13:36;6.85;;;5.38;;
63112;SDS011;49206;48.020;21.378;2022-09-12T05:23:39;5.40;;;4.00;;
63112;SDS011;49206;48.020;21.378;2022-09-12T05:33:43;5.88;;;3.92;;
63112;SDS011;49206;48.020;21.378;2022-09-12T05:43:50;10.85;;;5.20;;
63112;SDS011;49206;48.020;21.378;2022-09-12T05:53:55;6.28;;;4.65;;
63112;SDS011;49206;48.020;21.378;2022-09-12T06:03:59;4.38;;;3.88;;
63112;SDS011;49206;48.020;21.378;2022-09-12T06:14:04;4.60;;;4.15;;
63112;SDS011;49206;48.020;21.378;2022-09-12T06:24:06;4.47;;;4.05;;
63112;SDS011;49206;48.020;21.378;2022-09-12T06:34:10;4.32;;;3.35;;
63112;SDS011;49206;48.020;21.378;2022-09-12T06:44:16;4.90;;;4.05;;
63112;SDS011;49206;48.020;21.378;2022-09-12T06:54:20;4.28;;;3.78;;
63112;SDS011;49206;48.020;21.378;2022-09-12T07:04:22;4.10;;;3.35;;
63112;SDS011;49206;48.020;21.378;2022-09-12T07:14:25;4.72;;;4.22;;
63112;SDS011;49206;48.020;21.378;2022-09-12T07:24:28;5.35;;;3.80;;
63112;SDS011;49206;48.020;21.378;2022-09-12T07:34:31;3.30;;;2.90;;
63112;SDS011;49206;48.020;21.378;2022-09-12T07:44:34;3.70;;;3.28;;
63112;SDS011;49206;48.020;21.378;2022-09-12T07:54:37;3.30;;;3.00;;
63112;SDS011;49206;48.020;21.378;2022-09-12T08:14:43;3.28;;;2.35;;
63112;SDS011;49206;48.020;21.378;2022-09-12T08:24:49;3.97;;;2.85;;
63112;SDS011;49206;48.020;21.378;2022-09-12T08:34:52;4.40;;;3.35;;
63112;SDS011;49206;48.020;21.378;2022-09-12T08:55:35;3.13;;;2.80;;
63112;SDS011;49206;48.020;21.378;2022-09-12T09:06:09;2.78;;;2.58;;
63112;SDS011;49206;48.020;21.378;2022-09-12T09:17:00;2.42;;;2.28;;
63112;SDS011;49206;48.020;21.378;2022-09-12T09:26:42;5.68;;;2.40;;
63112;SDS011;49206;48.020;21.378;2022-09-12T09:47:02;2.95;;;1.95;;
63112;SDS011;49206;48.020;21.378;2022-09-12T09:57:31;3.00;;;2.05;;
63112;SDS011;49206;48.020;21.378;2022-09-12T10:07:48;4.13;;;2.40;;
63112;SDS011;49206;48.020;21.378;2022-09-12T10:17:51;2.28;;;1.98;;
63112;SDS011;49206;48.020;21.378;2022-09-12T10:27:57;2.67;;;2.10;;
63112;SDS011;49206;48.020;21.378;2022-09-12T10:38:03;2.72;;;2.00;;
63112;SDS011;49206;48.020;21.378;2022-09-12T11:09:05;2.38;;;2.17;;
63112;SDS011;49206;48.020;21.378;2022-09-12T11:39:47;2.38;;;2.17;;
63112;SDS011;49206;48.020;21.378;2022-09-12T11:49:57;1.67;;;1.58;;
63112;SDS011;49206;48.020;21.378;2022-09-12T12:00:20;2.00;;;1.90;;
63112;SDS011;49206;48.020;21.378;2022-09-12T12:20:33;1.88;;;1.77;;
63112;SDS011;49206;48.020;21.378;2022-09-12T12:40:39;2.05;;;1.80;;
63112;SDS011;49206;48.020;21.378;2022-09-12T12:50:42;2.50;;;2.30;;
63112;SDS011;49206;48.020;21.378;2022-09-12T13:00:44;2.67;;;1.60;;
63112;SDS011;49206;48.020;21.378;2022-09-12T13:10:52;2.00;;;1.90;;
63112;SDS011;49206;48.020;21.378;2022-09-12T13:31:23;2.40;;;2.20;;
63112;SDS011;49206;48.020;21.378;2022-09-12T13:52:25;2.35;;;1.95;;
63112;SDS011;49206;48.020;21.378;2022-09-12T14:02:33;1.67;;;1.58;;
63112;SDS011;49206;48.020;21.378;2022-09-12T14:12:37;2.50;;;1.92;;
63112;SDS011;49206;48.020;21.378;2022-09-12T14:22:44;3.67;;;1.70;;
63112;SDS011;49206;48.020;21.378;2022-09-12T14:43:22;9.32;;;2.47;;
63112;SDS011;49206;48.020;21.378;2022-09-12T14:53:35;2.45;;;2.20;;
63112;SDS011;49206;48.020;21.378;2022-09-12T15:13:50;2.05;;;1.95;;
63112;SDS011;49206;48.020;21.378;2022-09-12T15:23:53;2.33;;;2.13;;
63112;SDS011;49206;48.020;21.378;2022-09-12T15:43:58;3.03;;;2.42;;
63112;SDS011;49206;48.020;21.378;2022-09-12T15:54:02;2.70;;;2.50;;
63112;SDS011;49206;48.020;21.378;2022-09-12T16:04:17;2.58;;;2.38;;
63112;SDS011;49206;48.020;21.378;2022-09-12T16:14:22;5.20;;;2.38;;
63112;SDS011;49206;48.020;21.378;2022-09-12T16:34:28;4.10;;;2.38;;
63112;SDS011;49206;48.020;21.378;2022-09-12T16:44:31;4.50;;;2.47;;
63112;SDS011;49206;48.020;21.378;2022-09-12T16:54:34;3.28;;;2.60;;
63112;SDS011;49206;48.020;21.378;2022-09-12T17:04:37;4.10;;;2.92;;
63112;SDS011;49206;48.020;21.378;2022-09-12T17:14:40;3.10;;;2.72;;
63112;SDS011;49206;48.020;21.378;2022-09-12T17:24:43;5.68;;;2.88;;
63112;SDS011;49206;48.020;21.378;2022-09-12T17:34:46;3.65;;;3.22;;
63112;SDS011;49206;48.020;21.378;2022-09-12T17:44:50;3.08;;;2.78;;
63112;SDS011;49206;48.020;21.378;2022-09-12T17:54:52;3.20;;;2.38;;
63112;SDS011;49206;48.020;21.378;2022-09-12T18:04:55;3.60;;;2.70;;
63112;SDS011;49206;48.020;21.378;2022-09-12T18:14:58;3.00;;;2.75;;
63112;SDS011;49206;48.020;21.378;2022-09-12T18:25:02;2.55;;;2.35;;
63112;SDS011;49206;48.020;21.378;2022-09-12T18:35:05;3.45;;;2.97;;
63112;SDS011;49206;48.020;21.378;2022-09-12T18:45:09;4.95;;;3.30;;
63112;SDS011;49206;48.020;21.378;2022-09-12T18:55:12;5.10;;;2.80;;
63112;SDS011;49206;48.020;21.378;2022-09-12T19:05:15;4.57;;;2.67;;
63112;SDS011;49206;48.020;21.378;2022-09-12T19:15:18;3.35;;;2.80;;
63112;SDS011;49206;48.020;21.378;2022-09-12T19:25:21;8.25;;;3.70;;
63112;SDS011;49206;48.020;21.378;2022-09-12T19:45:47;5.13;;;3.67;;
63112;SDS011;49206;48.020;21.378;2022-09-12T19:55:50;3.60;;;3.30;;
63112;SDS011;49206;48.020;21.378;2022-09-12T20:05:54;5.75;;;3.72;;
63112;SDS011;49206;48.020;21.378;2022-09-12T20:26:23;7.47;;;3.60;;
63112;SDS011;49206;48.020;21.378;2022-09-12T20:36:27;4.30;;;3.90;;
63112;SDS011;49206;48.020;21.378;2022-09-12T20:46:30;4.95;;;3.80;;
63112;SDS011;49206;48.020;21.378;2022-09-12T20:56:33;4.68;;;3.53;;
63112;SDS011;49206;48.020;21.378;2022-09-12T21:06:37;4.32;;;3.50;;
63112;SDS011;49206;48.020;21.378;2022-09-12T21:16:39;6.68;;;3.90;;
63112;SDS011;49206;48.020;21.378;2022-09-12T21:26:41;5.75;;;4.60;;
63112;SDS011;49206;48.020;21.378;2022-09-12T21:36:44;6.38;;;4.53;;
63112;SDS011;49206;48.020;21.378;2022-09-12T21:46:46;6.60;;;4.88;;
63112;SDS011;49206;48.020;21.378;2022-09-12T21:56:48;6.53;;;4.75;;
63112;SDS011;49206;48.020;21.378;2022-09-12T22:06:51;7.28;;;4.72;;
63112;SDS011;49206;48.020;21.378;2022-09-12T22:16:53;5.50;;;4.38;;
63112;SDS011;49206;48.020;21.378;2022-09-12T22:26:56;7.28;;;4.13;;
63112;SDS011;49206;48.020;21.378;2022-09-12T22:36:59;6.57;;;4.20;;
63112;SDS011;49206;48.020;21.378;2022-09-12T22:47:02;6.97;;;4.53;;
63112;SDS011;49206;48.020;21.378;2022-09-12T22:57:05;7.05;;;4.95;;
63112;SDS011;49206;48.020;21.378;2022-09-12T23:07:08;4.75;;;4.25;;
63112;SDS011;49206;48.020;21.378;2022-09-12T23:17:11;4.90;;;4.40;;
63112;SDS011;49206;48.020;21.378;2022-09-12T23:27:13;5.43;;;3.92;;
63112;SDS011;49206;48.020;21.378;2022-09-12T23:37:16;7.45;;;4.30;;
63112;SDS011;49206;48.020;21.378;2022-09-12T23:47:18;4.93;;;4.43;;
63112;SDS011;49206;48.020;21.378;2022-09-12T23:57:21;5.30;;;4.28;;
